sensor_id;sensor_type;location;lat;lon;timestamp;pressure;altitude;pressure_sealevel;temperature;humidity
22743;BME280;11538;48.884;8.696;2023-02-27T00:02:00;99206.09;;;0.28;62.91
22743;BME280;11538;48.884;8.696;2023-02-27T00:04:27;99209.84;;;0.20;63.36
22743;BME280;11538;48.884;8.696;2023-02-27T00:06:54;99205.78;;;0.18;63.80
22743;BME280;11538;48.884;8.696;2023-02-27T00:09:21;99208.91;;;0.14;63.66
22743;BME280;11538;48.884;8.696;2023-02-27T00:11:47;99201.09;;;0.13;63.93
22743;BME280;11538;48.884;8.696;2023-02-27T00:14:17;99206.13;;;0.03;64.53
22743;BME280;11538;48.884;8.696;2023-02-27T00:16:44;99206.97;;;0.03;64.49
22743;BME280;11538;48.884;8.696;2023-02-27T00:19:11;99213.25;;;0.09;64.35
22743;BME280;11538;48.884;8.696;2023-02-27T00:21:40;99206.88;;;0.10;64.13
22743;BME280;11538;48.884;8.696;2023-02-27T00:24:10;99205.41;;;0.14;64.46
22743;BME280;11538;48.884;8.696;2023-02-27T00:26:37;99208.91;;;0.14;64.38
22743;BME280;11538;48.884;8.696;2023-02-27T00:29:05;99213.47;;;0.07;64.77
22743;BME280;11538;48.884;8.696;2023-02-27T00:31:32;99216.78;;;0.03;65.04
22743;BME280;11538;48.884;8.696;2023-02-27T00:33:59;99218.81;;;0.07;65.16
22743;BME280;11538;48.884;8.696;2023-02-27T00:36:26;99216.16;;;0.07;65.47
22743;BME280;11538;48.884;8.696;2023-02-27T00:38:55;99213.25;;;0.09;65.30
22743;BME280;11538;48.884;8.696;2023-02-27T00:41:26;99214.44;;;0.13;65.49
22743;BME280;11538;48.884;8.696;2023-02-27T00:43:53;99212.75;;;0.19;65.33
22743;BME280;11538;48.884;8.696;2023-02-27T00:46:21;99214.97;;;0.22;65.21
22743;BME280;11538;48.884;8.696;2023-02-27T00:48:48;99213.94;;;0.23;65.35
22743;BME280;11538;48.884;8.696;2023-02-27T00:51:15;99216.91;;;0.14;65.51
22743;BME280;11538;48.884;8.696;2023-02-27T00:53:42;99213.81;;;-0.08;66.51
22743;BME280;11538;48.884;8.696;2023-02-27T00:56:09;99214.69;;;-0.14;67.03
22743;BME280;11538;48.884;8.696;2023-02-27T00:58:36;99209.50;;;-0.09;67.28
22743;BME280;11538;48.884;8.696;2023-02-27T01:01:03;99201.44;;;-0.02;67.01
22743;BME280;11538;48.884;8.696;2023-02-27T01:03:30;99197.72;;;-0.01;67.01
22743;BME280;11538;48.884;8.696;2023-02-27T01:05:57;99199.56;;;0.05;67.23
22743;BME280;11538;48.884;8.696;2023-02-27T01:08:24;99192.41;;;-0.01;67.19
22743;BME280;11538;48.884;8.696;2023-02-27T01:10:55;99194.09;;;-0.07;67.87
22743;BME280;11538;48.884;8.696;2023-02-27T01:13:23;99197.22;;;-0.10;67.69
22743;BME280;11538;48.884;8.696;2023-02-27T01:15:50;99191.13;;;-0.17;67.96
22743;BME280;11538;48.884;8.696;2023-02-27T01:18:17;99191.13;;;-0.17;68.28
22743;BME280;11538;48.884;8.696;2023-02-27T01:20:44;99189.66;;;-0.13;68.12
22743;BME280;11538;48.884;8.696;2023-02-27T01:23:11;99180.97;;;-0.08;68.19
22743;BME280;11538;48.884;8.696;2023-02-27T01:25:38;99187.34;;;-0.09;67.91
22743;BME280;11538;48.884;8.696;2023-02-27T01:28:05;99186.75;;;-0.11;68.55
22743;BME280;11538;48.884;8.696;2023-02-27T01:30:32;99188.81;;;-0.13;68.42
22743;BME280;11538;48.884;8.696;2023-02-27T01:32:59;99187.19;;;-0.15;68.65
22743;BME280;11538;48.884;8.696;2023-02-27T01:35:26;99187.78;;;-0.12;68.82
22743;BME280;11538;48.884;8.696;2023-02-27T01:37:53;99187.88;;;-0.19;68.86
22743;BME280;11538;48.884;8.696;2023-02-27T01:40:20;99179.03;;;-0.20;69.16
22743;BME280;11538;48.884;8.696;2023-02-27T01:42:47;99180.50;;;-0.24;69.37
22743;BME280;11538;48.884;8.696;2023-02-27T01:45:29;99184.88;;;-0.30;69.63
22743;BME280;11538;48.884;8.696;2023-02-27T01:48:11;99182.38;;;-0.24;69.49
22743;BME280;11538;48.884;8.696;2023-02-27T01:51:06;99189.53;;;-0.25;69.69
22743;BME280;11538;48.884;8.696;2023-02-27T01:53:38;99180.59;;;-0.31;69.79
22743;BME280;11538;48.884;8.696;2023-02-27T01:56:21;99183.88;;;-0.35;70.45
22743;BME280;11538;48.884;8.696;2023-02-27T01:58:52;99184.31;;;-0.38;70.41
22743;BME280;11538;48.884;8.696;2023-02-27T02:01:22;99179.00;;;-0.38;70.63
22743;BME280;11538;48.884;8.696;2023-02-27T02:04:23;99188.03;;;-0.39;70.72
22743;BME280;11538;48.884;8.696;2023-02-27T02:06:59;99182.16;;;-0.48;71.07
22743;BME280;11538;48.884;8.696;2023-02-27T02:09:27;99183.72;;;-0.40;70.80
22743;BME280;11538;48.884;8.696;2023-02-27T02:11:57;99187.38;;;-0.35;70.77
22743;BME280;11538;48.884;8.696;2023-02-27T02:14:24;99192.03;;;-0.30;70.79
22743;BME280;11538;48.884;8.696;2023-02-27T02:17:44;99181.47;;;-0.37;71.24
22743;BME280;11538;48.884;8.696;2023-02-27T02:21:00;99175.09;;;-0.36;71.22
22743;BME280;11538;48.884;8.696;2023-02-27T02:32:59;99184.72;;;-0.35;71.62
22743;BME280;11538;48.884;8.696;2023-02-27T02:35:45;99190.84;;;-0.34;71.68
22743;BME280;11538;48.884;8.696;2023-02-27T02:41:27;99190.75;;;-0.46;72.12
22743;BME280;11538;48.884;8.696;2023-02-27T02:47:13;99189.94;;;-0.47;72.54
22743;BME280;11538;48.884;8.696;2023-02-27T02:52:49;99191.34;;;-0.44;72.50
22743;BME280;11538;48.884;8.696;2023-02-27T02:56:34;99193.03;;;-0.50;72.47
22743;BME280;11538;48.884;8.696;2023-02-27T03:01:48;99203.50;;;-0.55;72.96
22743;BME280;11538;48.884;8.696;2023-02-27T03:04:40;99201.88;;;-0.56;73.18
22743;BME280;11538;48.884;8.696;2023-02-27T03:07:32;99204.56;;;-0.56;72.98
22743;BME280;11538;48.884;8.696;2023-02-27T03:10:12;99197.16;;;-0.54;73.42
22743;BME280;11538;48.884;8.696;2023-02-27T03:12:50;99198.03;;;-0.60;73.50
22743;BME280;11538;48.884;8.696;2023-02-27T03:15:28;99194.16;;;-0.64;74.02
22743;BME280;11538;48.884;8.696;2023-02-27T03:18:39;99194.94;;;-0.57;73.92
22743;BME280;11538;48.884;8.696;2023-02-27T03:21:21;99194.59;;;-0.67;73.86
22743;BME280;11538;48.884;8.696;2023-02-27T03:23:56;99194.19;;;-0.71;74.22
22743;BME280;11538;48.884;8.696;2023-02-27T03:26:34;99194.31;;;-0.59;73.74
22743;BME280;11538;48.884;8.696;2023-02-27T03:29:19;99198.03;;;-0.60;73.69
22743;BME280;11538;48.884;8.696;2023-02-27T03:32:00;99202.38;;;-0.66;73.83
22743;BME280;11538;48.884;8.696;2023-02-27T03:34:35;99202.19;;;-0.71;74.23
22743;BME280;11538;48.884;8.696;2023-02-27T03:40:02;99210.44;;;-0.79;74.89
22743;BME280;11538;48.884;8.696;2023-02-27T03:43:15;99212.06;;;-0.78;74.90
22743;BME280;11538;48.884;8.696;2023-02-27T03:48:24;99218.59;;;-0.74;74.88
22743;BME280;11538;48.884;8.696;2023-02-27T03:50:51;99217.81;;;-0.81;75.26
22743;BME280;11538;48.884;8.696;2023-02-27T03:53:45;99221.06;;;-0.72;75.17
22743;BME280;11538;48.884;8.696;2023-02-27T03:56:21;99221.22;;;-0.67;75.18
22743;BME280;11538;48.884;8.696;2023-02-27T03:58:51;99225.56;;;-0.73;74.87
22743;BME280;11538;48.884;8.696;2023-02-27T04:01:18;99229.31;;;-0.81;75.02
22743;BME280;11538;48.884;8.696;2023-02-27T04:03:58;99233.59;;;-0.80;75.09
22743;BME280;11538;48.884;8.696;2023-02-27T04:06:26;99230.50;;;-0.77;74.95
22743;BME280;11538;48.884;8.696;2023-02-27T04:12:35;99231.38;;;-0.83;75.13
22743;BME280;11538;48.884;8.696;2023-02-27T04:19:01;99236.78;;;-0.96;75.87
22743;BME280;11538;48.884;8.696;2023-02-27T04:21:37;99237.78;;;-0.97;76.11
22743;BME280;11538;48.884;8.696;2023-02-27T04:30:31;99245.31;;;-0.88;75.91
22743;BME280;11538;48.884;8.696;2023-02-27T04:41:38;99245.38;;;-1.01;77.23
22743;BME280;11538;48.884;8.696;2023-02-27T04:44:11;99247.41;;;-0.96;77.04
22743;BME280;11538;48.884;8.696;2023-02-27T04:46:42;99243.94;;;-0.97;76.84
22743;BME280;11538;48.884;8.696;2023-02-27T04:49:33;99246.63;;;-1.04;77.12
22743;BME280;11538;48.884;8.696;2023-02-27T04:52:28;99246.59;;;-0.97;77.21
22743;BME280;11538;48.884;8.696;2023-02-27T04:55:21;99251.06;;;-0.91;76.91
22743;BME280;11538;48.884;8.696;2023-02-27T04:58:08;99247.41;;;-0.96;77.27
22743;BME280;11538;48.884;8.696;2023-02-27T05:00:39;99248.69;;;-1.06;77.49
22743;BME280;11538;48.884;8.696;2023-02-27T05:03:23;99251.56;;;-1.07;77.87
22743;BME280;11538;48.884;8.696;2023-02-27T05:05:56;99253.16;;;-0.99;77.74
22743;BME280;11538;48.884;8.696;2023-02-27T05:08:40;99253.94;;;-0.92;77.71
22743;BME280;11538;48.884;8.696;2023-02-27T05:11:31;99251.50;;;-0.94;77.56
22743;BME280;11538;48.884;8.696;2023-02-27T05:14:18;99260.94;;;-0.98;78.25
22743;BME280;11538;48.884;8.696;2023-02-27T05:17:07;99261.97;;;-0.99;78.03
22743;BME280;11538;48.884;8.696;2023-02-27T05:19:39;99263.00;;;-1.00;78.39
22743;BME280;11538;48.884;8.696;2023-02-27T05:22:34;99257.88;;;-1.01;78.20
22743;BME280;11538;48.884;8.696;2023-02-27T05:25:36;99259.97;;;-1.10;78.55
22743;BME280;11538;48.884;8.696;2023-02-27T05:28:18;99257.72;;;-1.07;78.84
22743;BME280;11538;48.884;8.696;2023-02-27T05:31:35;99263.63;;;-1.05;78.67
22743;BME280;11538;48.884;8.696;2023-02-27T05:34:15;99259.53;;;-1.07;78.38
22743;BME280;11538;48.884;8.696;2023-02-27T05:36:58;99264.47;;;-1.11;78.53
22743;BME280;11538;48.884;8.696;2023-02-27T05:39:31;99268.97;;;-1.11;78.65
22743;BME280;11538;48.884;8.696;2023-02-27T05:42:10;99264.69;;;-1.12;78.42
22743;BME280;11538;48.884;8.696;2023-02-27T05:44:47;99261.00;;;-1.11;78.43
22743;BME280;11538;48.884;8.696;2023-02-27T05:47:19;99279.44;;;-1.10;78.61
22743;BME280;11538;48.884;8.696;2023-02-27T05:49:58;99270.63;;;-1.10;78.48
22743;BME280;11538;48.884;8.696;2023-02-27T05:52:30;99265.34;;;-1.17;78.98
22743;BME280;11538;48.884;8.696;2023-02-27T05:55:11;99268.59;;;-1.22;78.92
22743;BME280;11538;48.884;8.696;2023-02-27T05:57:49;99275.38;;;-1.19;79.10
22743;BME280;11538;48.884;8.696;2023-02-27T06:00:26;99267.56;;;-1.14;78.66
22743;BME280;11538;48.884;8.696;2023-02-27T06:02:55;99281.25;;;-1.10;78.88
22743;BME280;11538;48.884;8.696;2023-02-27T06:05:24;99273.69;;;-1.13;78.61
22743;BME280;11538;48.884;8.696;2023-02-27T06:07:52;99277.63;;;-1.16;78.25
22743;BME280;11538;48.884;8.696;2023-02-27T06:10:20;99280.06;;;-1.14;78.16
22743;BME280;11538;48.884;8.696;2023-02-27T06:12:47;99272.91;;;-1.21;78.25
22743;BME280;11538;48.884;8.696;2023-02-27T06:15:15;99281.72;;;-1.20;78.62
22743;BME280;11538;48.884;8.696;2023-02-27T06:17:46;99281.31;;;-1.17;78.52
22743;BME280;11538;48.884;8.696;2023-02-27T06:20:13;99283.97;;;-1.17;78.37
22743;BME280;11538;48.884;8.696;2023-02-27T06:22:40;99287.66;;;-1.18;78.46
22743;BME280;11538;48.884;8.696;2023-02-27T06:25:08;99289.72;;;-1.20;78.37
22743;BME280;11538;48.884;8.696;2023-02-27T06:27:36;99291.56;;;-1.27;79.00
22743;BME280;11538;48.884;8.696;2023-02-27T06:30:04;99295.88;;;-1.26;79.17
22743;BME280;11538;48.884;8.696;2023-02-27T06:32:33;99299.13;;;-1.24;79.50
22743;BME280;11538;48.884;8.696;2023-02-27T06:35:00;99297.69;;;-1.27;78.96
22743;BME280;11538;48.884;8.696;2023-02-27T06:37:27;99305.91;;;-1.28;79.13
22743;BME280;11538;48.884;8.696;2023-02-27T06:39:54;99295.88;;;-1.26;79.31
22743;BME280;11538;48.884;8.696;2023-02-27T06:42:21;99298.13;;;-1.23;78.94
22743;BME280;11538;48.884;8.696;2023-02-27T06:44:48;99304.84;;;-1.21;78.80
22743;BME280;11538;48.884;8.696;2023-02-27T06:47:15;99304.44;;;-1.18;78.76
22743;BME280;11538;48.884;8.696;2023-02-27T06:49:42;99307.31;;;-1.19;79.13
22743;BME280;11538;48.884;8.696;2023-02-27T06:52:09;99309.97;;;-1.19;78.98
22743;BME280;11538;48.884;8.696;2023-02-27T06:54:36;99318.38;;;-1.22;79.29
22743;BME280;11538;48.884;8.696;2023-02-27T06:57:03;99313.44;;;-1.19;79.29
22743;BME280;11538;48.884;8.696;2023-02-27T06:59:31;99312.03;;;-1.21;79.26
22743;BME280;11538;48.884;8.696;2023-02-27T07:01:58;99311.63;;;-1.18;79.38
22743;BME280;11538;48.884;8.696;2023-02-27T07:04:26;99319.19;;;-1.15;79.22
22743;BME280;11538;48.884;8.696;2023-02-27T07:06:53;99315.25;;;-1.12;79.13
22743;BME280;11538;48.884;8.696;2023-02-27T07:09:40;99322.25;;;-1.18;79.33
22743;BME280;11538;48.884;8.696;2023-02-27T07:12:08;99318.56;;;-1.17;79.05
22743;BME280;11538;48.884;8.696;2023-02-27T07:14:36;99318.75;;;-1.12;79.19
22743;BME280;11538;48.884;8.696;2023-02-27T07:17:03;99324.06;;;-1.05;79.19
22743;BME280;11538;48.884;8.696;2023-02-27T07:19:31;99325.50;;;-1.02;79.13
22743;BME280;11538;48.884;8.696;2023-02-27T07:21:59;99335.69;;;-0.93;78.49
22743;BME280;11538;48.884;8.696;2023-02-27T07:24:26;99334.22;;;-0.89;77.97
22743;BME280;11538;48.884;8.696;2023-02-27T07:26:53;99328.47;;;-0.85;77.26
22743;BME280;11538;48.884;8.696;2023-02-27T07:29:20;99332.16;;;-0.80;77.35
22743;BME280;11538;48.884;8.696;2023-02-27T07:31:47;99335.00;;;-0.75;77.19
22743;BME280;11538;48.884;8.696;2023-02-27T07:34:14;99334.59;;;-0.71;77.25
22743;BME280;11538;48.884;8.696;2023-02-27T07:36:43;99325.94;;;-0.67;76.94
22743;BME280;11538;48.884;8.696;2023-02-27T07:39:13;99340.28;;;-0.61;77.14
22743;BME280;11538;48.884;8.696;2023-02-27T07:41:40;99337.00;;;-0.56;76.72
22743;BME280;11538;48.884;8.696;2023-02-27T07:44:07;99337.38;;;-0.53;76.71
22743;BME280;11538;48.884;8.696;2023-02-27T07:46:36;99334.06;;;-0.48;76.21
22743;BME280;11538;48.884;8.696;2023-02-27T07:49:03;99345.34;;;-0.53;76.43
22743;BME280;11538;48.884;8.696;2023-02-27T07:51:30;99343.03;;;-0.42;76.64
22743;BME280;11538;48.884;8.696;2023-02-27T07:53:57;99345.44;;;-0.27;75.60
22743;BME280;11538;48.884;8.696;2023-02-27T07:56:27;99349.69;;;-0.20;75.63
22743;BME280;11538;48.884;8.696;2023-02-27T07:58:55;99344.94;;;-0.18;74.69
22743;BME280;11538;48.884;8.696;2023-02-27T08:01:22;99344.75;;;-0.16;74.89
22743;BME280;11538;48.884;8.696;2023-02-27T08:03:49;99346.09;;;0.00;73.68
22743;BME280;11538;48.884;8.696;2023-02-27T08:06:16;99342.72;;;0.11;73.30
22743;BME280;11538;48.884;8.696;2023-02-27T08:08:43;99349.41;;;0.21;72.78
22743;BME280;11538;48.884;8.696;2023-02-27T08:11:10;99343.38;;;0.32;72.79
22743;BME280;11538;48.884;8.696;2023-02-27T08:13:37;99349.56;;;0.51;71.49
22743;BME280;11538;48.884;8.696;2023-02-27T08:16:24;99349.22;;;0.66;70.83
22743;BME280;11538;48.884;8.696;2023-02-27T08:18:51;99349.84;;;0.87;69.89
22743;BME280;11538;48.884;8.696;2023-02-27T08:21:18;99349.94;;;0.99;68.62
22743;BME280;11538;48.884;8.696;2023-02-27T08:23:45;99350.38;;;1.14;68.50
22743;BME280;11538;48.884;8.696;2023-02-27T08:26:14;99359.94;;;1.41;67.03
22743;BME280;11538;48.884;8.696;2023-02-27T08:28:41;99345.09;;;1.57;66.07
22743;BME280;11538;48.884;8.696;2023-02-27T08:31:09;99351.31;;;1.69;65.66
22743;BME280;11538;48.884;8.696;2023-02-27T08:33:36;99343.28;;;2.00;64.54
22743;BME280;11538;48.884;8.696;2023-02-27T08:36:03;99340.47;;;1.95;63.80
22743;BME280;11538;48.884;8.696;2023-02-27T08:38:30;99345.59;;;2.08;64.01
22743;BME280;11538;48.884;8.696;2023-02-27T08:40:57;99343.88;;;2.26;62.91
22743;BME280;11538;48.884;8.696;2023-02-27T08:43:24;99344.25;;;2.41;62.84
22743;BME280;11538;48.884;8.696;2023-02-27T08:45:51;99354.16;;;2.53;62.19
22743;BME280;11538;48.884;8.696;2023-02-27T08:48:22;99347.63;;;2.84;60.85
22743;BME280;11538;48.884;8.696;2023-02-27T08:50:51;99348.09;;;2.93;60.21
22743;BME280;11538;48.884;8.696;2023-02-27T08:53:18;99354.59;;;3.09;59.66
22743;BME280;11538;48.884;8.696;2023-02-27T08:55:51;99360.00;;;3.38;58.66
22743;BME280;11538;48.884;8.696;2023-02-27T08:58:18;99365.56;;;3.48;57.73
22743;BME280;11538;48.884;8.696;2023-02-27T09:00:46;99368.84;;;3.79;56.85
22743;BME280;11538;48.884;8.696;2023-02-27T09:03:13;99364.72;;;3.89;56.41
22743;BME280;11538;48.884;8.696;2023-02-27T09:05:42;99357.19;;;3.74;55.89
22743;BME280;11538;48.884;8.696;2023-02-27T09:08:09;99361.19;;;3.71;55.98
22743;BME280;11538;48.884;8.696;2023-02-27T09:10:38;99364.53;;;3.78;55.19
22743;BME280;11538;48.884;8.696;2023-02-27T09:13:05;99362.22;;;4.16;54.38
22743;BME280;11538;48.884;8.696;2023-02-27T09:15:32;99353.44;;;4.38;54.06
22743;BME280;11538;48.884;8.696;2023-02-27T09:18:01;99362.66;;;4.42;53.70
22743;BME280;11538;48.884;8.696;2023-02-27T09:20:30;99365.81;;;4.56;53.87
22743;BME280;11538;48.884;8.696;2023-02-27T09:22:58;99359.53;;;4.50;53.16
22743;BME280;11538;48.884;8.696;2023-02-27T09:25:26;99353.34;;;4.67;52.80
22743;BME280;11538;48.884;8.696;2023-02-27T09:27:53;99356.25;;;4.82;52.56
22743;BME280;11538;48.884;8.696;2023-02-27T09:30:22;99362.47;;;5.05;51.24
22743;BME280;11538;48.884;8.696;2023-02-27T09:32:49;99355.03;;;5.12;49.67
22743;BME280;11538;48.884;8.696;2023-02-27T09:35:17;99369.97;;;5.03;50.07
22743;BME280;11538;48.884;8.696;2023-02-27T09:37:46;99377.44;;;5.18;49.51
22743;BME280;11538;48.884;8.696;2023-02-27T09:40:29;99363.72;;;5.42;48.67
22743;BME280;11538;48.884;8.696;2023-02-27T09:43:02;99370.84;;;5.53;48.46
22743;BME280;11538;48.884;8.696;2023-02-27T09:45:36;99371.06;;;5.47;48.56
22743;BME280;11538;48.884;8.696;2023-02-27T09:48:28;99375.25;;;5.37;48.93
22743;BME280;11538;48.884;8.696;2023-02-27T09:50:57;99378.56;;;5.45;48.05
22743;BME280;11538;48.884;8.696;2023-02-27T09:53:45;99375.03;;;5.66;47.58
22743;BME280;11538;48.884;8.696;2023-02-27T09:56:25;99376.38;;;5.91;47.01
22743;BME280;11538;48.884;8.696;2023-02-27T09:59:34;99375.41;;;5.75;47.21
22743;BME280;11538;48.884;8.696;2023-02-27T10:05:04;99376.44;;;5.96;47.16
22743;BME280;11538;48.884;8.696;2023-02-27T10:08:01;99369.84;;;6.09;48.47
22743;BME280;11538;48.884;8.696;2023-02-27T10:10:55;99379.47;;;6.33;46.23
22743;BME280;11538;48.884;8.696;2023-02-27T10:13:48;99371.78;;;6.47;45.74
22743;BME280;11538;48.884;8.696;2023-02-27T10:16:22;99382.91;;;6.61;44.69
22743;BME280;11538;48.884;8.696;2023-02-27T10:19:04;99384.41;;;6.08;45.07
22743;BME280;11538;48.884;8.696;2023-02-27T10:21:41;99386.03;;;5.87;46.01
22743;BME280;11538;48.884;8.696;2023-02-27T10:24:34;99399.94;;;6.01;45.40
22743;BME280;11538;48.884;8.696;2023-02-27T10:27:13;99392.94;;;6.33;44.89
22743;BME280;11538;48.884;8.696;2023-02-27T10:29:41;99389.09;;;6.56;44.03
22743;BME280;11538;48.884;8.696;2023-02-27T10:32:27;99398.59;;;6.64;44.30
22743;BME280;11538;48.884;8.696;2023-02-27T10:38:02;99403.63;;;6.87;43.60
22743;BME280;11538;48.884;8.696;2023-02-27T10:40:33;99396.16;;;7.05;42.14
22743;BME280;11538;48.884;8.696;2023-02-27T10:43:02;99404.38;;;6.83;42.70
22743;BME280;11538;48.884;8.696;2023-02-27T10:45:33;99390.22;;;6.27;43.73
22743;BME280;11538;48.884;8.696;2023-02-27T10:48:01;99392.06;;;5.99;44.97
22743;BME280;11538;48.884;8.696;2023-02-27T10:50:36;99398.09;;;6.07;44.59
22743;BME280;11538;48.884;8.696;2023-02-27T10:53:26;99392.06;;;6.22;44.12
22743;BME280;11538;48.884;8.696;2023-02-27T10:56:02;99401.53;;;6.29;44.31
22743;BME280;11538;48.884;8.696;2023-02-27T10:58:34;99393.91;;;6.86;43.68
22743;BME280;11538;48.884;8.696;2023-02-27T11:01:05;99411.16;;;6.85;43.21
22743;BME280;11538;48.884;8.696;2023-02-27T11:03:37;99404.78;;;7.02;42.52
22743;BME280;11538;48.884;8.696;2023-02-27T11:06:24;99402.50;;;6.83;42.89
22743;BME280;11538;48.884;8.696;2023-02-27T11:11:39;99399.75;;;7.21;42.61
22743;BME280;11538;48.884;8.696;2023-02-27T11:16:51;99404.41;;;7.36;41.51
22743;BME280;11538;48.884;8.696;2023-02-27T11:19:35;99393.75;;;7.78;41.65
22743;BME280;11538;48.884;8.696;2023-02-27T11:22:18;99394.41;;;8.26;40.59
22743;BME280;11538;48.884;8.696;2023-02-27T11:24:46;99386.47;;;7.78;40.95
22743;BME280;11538;48.884;8.696;2023-02-27T11:27:26;99385.69;;;7.93;40.43
22743;BME280;11538;48.884;8.696;2023-02-27T11:30:28;99380.03;;;7.89;40.69
22743;BME280;11538;48.884;8.696;2023-02-27T11:32:57;99385.13;;;7.86;40.91
22743;BME280;11538;48.884;8.696;2023-02-27T11:35:36;99382.53;;;8.27;40.12
22743;BME280;11538;48.884;8.696;2023-02-27T11:38:15;99385.19;;;9.00;39.40
22743;BME280;11538;48.884;8.696;2023-02-27T11:40:59;99378.94;;;9.75;37.70
22743;BME280;11538;48.884;8.696;2023-02-27T11:43:36;99370.44;;;9.92;36.23
22743;BME280;11538;48.884;8.696;2023-02-27T11:46:17;99368.44;;;10.08;36.16
22743;BME280;11538;48.884;8.696;2023-02-27T11:49:29;99367.81;;;10.86;35.57
22743;BME280;11538;48.884;8.696;2023-02-27T11:54:54;99376.72;;;11.16;34.11
22743;BME280;11538;48.884;8.696;2023-02-27T11:57:38;99371.41;;;11.06;33.98
22743;BME280;11538;48.884;8.696;2023-02-27T12:00:20;99363.78;;;11.08;33.91
22743;BME280;11538;48.884;8.696;2023-02-27T12:03:18;99372.09;;;10.63;34.62
22743;BME280;11538;48.884;8.696;2023-02-27T12:06:02;99376.97;;;9.26;36.73
22743;BME280;11538;48.884;8.696;2023-02-27T12:08:40;99385.78;;;8.50;37.28
22743;BME280;11538;48.884;8.696;2023-02-27T12:11:41;99369.53;;;8.24;37.88
22743;BME280;11538;48.884;8.696;2023-02-27T12:14:25;99373.59;;;8.89;36.93
22743;BME280;11538;48.884;8.696;2023-02-27T12:17:03;99368.22;;;8.63;38.09
22743;BME280;11538;48.884;8.696;2023-02-27T12:20:08;99364.16;;;8.66;38.38
22743;BME280;11538;48.884;8.696;2023-02-27T12:22:42;99363.13;;;9.38;37.58
22743;BME280;11538;48.884;8.696;2023-02-27T12:25:51;99356.69;;;9.23;37.45
22743;BME280;11538;48.884;8.696;2023-02-27T12:28:31;99349.03;;;9.46;37.17
22743;BME280;11538;48.884;8.696;2023-02-27T12:34:00;99351.88;;;9.70;36.57
22743;BME280;11538;48.884;8.696;2023-02-27T12:36:30;99349.81;;;8.29;38.92
22743;BME280;11538;48.884;8.696;2023-02-27T12:39:00;99345.16;;;7.88;40.30
22743;BME280;11538;48.884;8.696;2023-02-27T12:45:21;99347.38;;;8.69;38.95
22743;BME280;11538;48.884;8.696;2023-02-27T12:48:41;99336.03;;;9.93;36.54
22743;BME280;11538;48.884;8.696;2023-02-27T12:54:48;99345.06;;;9.17;37.70
22743;BME280;11538;48.884;8.696;2023-02-27T13:00:55;99345.16;;;7.88;40.06
22743;BME280;11538;48.884;8.696;2023-02-27T13:03:58;99342.75;;;7.97;39.65
22743;BME280;11538;48.884;8.696;2023-02-27T13:06:48;99339.13;;;9.15;38.16
22743;BME280;11538;48.884;8.696;2023-02-27T13:12:09;99337.25;;;10.46;35.36
22743;BME280;11538;48.884;8.696;2023-02-27T13:15:21;99348.00;;;9.31;37.07
22743;BME280;11538;48.884;8.696;2023-02-27T13:18:39;99350.88;;;8.23;38.68
22743;BME280;11538;48.884;8.696;2023-02-27T13:24:29;99337.44;;;9.35;36.92
22743;BME280;11538;48.884;8.696;2023-02-27T13:27:14;99315.78;;;9.80;35.80
22743;BME280;11538;48.884;8.696;2023-02-27T13:29:55;99343.53;;;8.90;37.47
22743;BME280;11538;48.884;8.696;2023-02-27T13:32:32;99345.22;;;7.98;38.36
22743;BME280;11538;48.884;8.696;2023-02-27T13:35:32;99330.38;;;7.11;39.78
22743;BME280;11538;48.884;8.696;2023-02-27T13:38:39;99334.25;;;6.78;40.71
22743;BME280;11538;48.884;8.696;2023-02-27T13:43:54;99336.53;;;6.58;41.31
22743;BME280;11538;48.884;8.696;2023-02-27T13:46:32;99340.75;;;6.44;41.21
22743;BME280;11538;48.884;8.696;2023-02-27T13:51:53;99329.31;;;6.26;42.09
22743;BME280;11538;48.884;8.696;2023-02-27T13:54:27;99331.22;;;6.26;41.99
22743;BME280;11538;48.884;8.696;2023-02-27T13:59:39;99335.56;;;6.70;41.23
22743;BME280;11538;48.884;8.696;2023-02-27T14:04:50;99334.94;;;8.62;37.45
22743;BME280;11538;48.884;8.696;2023-02-27T14:07:23;99335.75;;;8.11;38.72
22743;BME280;11538;48.884;8.696;2023-02-27T14:10:08;99340.53;;;7.63;39.19
22743;BME280;11538;48.884;8.696;2023-02-27T14:12:42;99342.25;;;7.10;39.30
22743;BME280;11538;48.884;8.696;2023-02-27T14:17:56;99342.41;;;6.50;40.61
22743;BME280;11538;48.884;8.696;2023-02-27T14:23:25;99343.41;;;6.39;40.91
22743;BME280;11538;48.884;8.696;2023-02-27T14:26:01;99344.84;;;6.47;40.67
22743;BME280;11538;48.884;8.696;2023-02-27T14:28:48;99345.44;;;6.21;41.13
22743;BME280;11538;48.884;8.696;2023-02-27T14:31:33;99341.53;;;6.39;40.67
22743;BME280;11538;48.884;8.696;2023-02-27T14:34:03;99332.88;;;6.32;40.51
22743;BME280;11538;48.884;8.696;2023-02-27T14:36:39;99337.34;;;6.21;40.70
22743;BME280;11538;48.884;8.696;2023-02-27T14:44:44;99341.84;;;5.83;41.45
22743;BME280;11538;48.884;8.696;2023-02-27T14:47:30;99342.81;;;5.71;41.97
22743;BME280;11538;48.884;8.696;2023-02-27T14:50:01;99341.41;;;5.69;42.74
22743;BME280;11538;48.884;8.696;2023-02-27T14:52:40;99344.38;;;5.67;42.67
22743;BME280;11538;48.884;8.696;2023-02-27T14:55:19;99339.19;;;5.61;42.48
22743;BME280;11538;48.884;8.696;2023-02-27T14:58:30;99343.25;;;5.63;42.31
22743;BME280;11538;48.884;8.696;2023-02-27T15:01:08;99340.69;;;5.51;42.43
22743;BME280;11538;48.884;8.696;2023-02-27T15:03:47;99352.53;;;5.50;42.38
22743;BME280;11538;48.884;8.696;2023-02-27T15:06:26;99366.25;;;5.49;42.05
22743;BME280;11538;48.884;8.696;2023-02-27T15:08:56;99353.59;;;5.49;42.59
22743;BME280;11538;48.884;8.696;2023-02-27T15:11:26;99360.31;;;5.47;42.76
22743;BME280;11538;48.884;8.696;2023-02-27T15:14:01;99365.97;;;5.28;42.29
22743;BME280;11538;48.884;8.696;2023-02-27T15:16:41;99373.28;;;5.10;42.91
22743;BME280;11538;48.884;8.696;2023-02-27T15:19:17;99370.09;;;4.91;43.39
22743;BME280;11538;48.884;8.696;2023-02-27T15:21:53;99371.84;;;5.03;43.45
22743;BME280;11538;48.884;8.696;2023-02-27T15:24:30;99374.91;;;5.11;43.03
22743;BME280;11538;48.884;8.696;2023-02-27T15:27:21;99379.59;;;4.99;43.63
22743;BME280;11538;48.884;8.696;2023-02-27T15:29:56;99379.91;;;5.03;43.36
22743;BME280;11538;48.884;8.696;2023-02-27T15:32:32;99378.78;;;4.98;43.38
22743;BME280;11538;48.884;8.696;2023-02-27T15:35:11;99376.34;;;4.97;43.50
22743;BME280;11538;48.884;8.696;2023-02-27T15:37:53;99387.03;;;4.92;43.71